createdAt,value
2017-09-21T00:01:07.973Z,8.30
2017-09-21T00:03:36.380Z,8.20
2017-09-21T00:06:04.049Z,8.20
2017-09-21T00:08:32.455Z,8.10
2017-09-21T00:11:00.105Z,8.10
2017-09-21T00:13:27.776Z,8.20
2017-09-21T00:15:55.445Z,8.20
2017-09-21T00:18:23.076Z,8.30
2017-09-21T00:20:50.797Z,8.20
2017-09-21T00:23:18.390Z,8.20
2017-09-21T00:25:46.821Z,8.10
2017-09-21T00:28:14.467Z,8.00
2017-09-21T00:30:42.119Z,8.10
2017-09-21T00:33:09.838Z,8.10
2017-09-21T00:35:37.443Z,8.10
2017-09-21T00:38:05.073Z,8.00
2017-09-21T00:40:32.704Z,8.00
2017-09-21T00:43:00.340Z,8.00
2017-09-21T00:45:28.050Z,7.90
2017-09-21T00:47:56.518Z,7.90
2017-09-21T00:50:24.195Z,7.90
2017-09-21T00:52:52.605Z,7.90
2017-09-21T00:55:20.295Z,7.80
2017-09-21T00:57:48.760Z,7.80
2017-09-21T01:00:16.370Z,7.80
2017-09-21T01:02:43.986Z,7.80
2017-09-21T01:05:12.073Z,7.80
2017-09-21T01:07:39.640Z,7.90
2017-09-21T01:10:07.223Z,7.80
2017-09-21T01:12:34.810Z,7.70
2017-09-21T01:15:02.393Z,7.80
2017-09-21T01:17:30.918Z,7.80
2017-09-21T01:19:58.575Z,7.80
2017-09-21T01:22:26.142Z,7.80
2017-09-21T01:24:53.729Z,7.90
2017-09-21T01:27:22.119Z,7.70
2017-09-21T01:29:49.707Z,7.70
2017-09-21T01:32:17.999Z,7.70
2017-09-21T01:34:45.585Z,7.70
2017-09-21T01:37:13.117Z,7.60
2017-09-21T01:39:40.692Z,7.70
2017-09-21T01:42:08.227Z,7.70
2017-09-21T01:44:35.804Z,7.70
2017-09-21T01:47:04.103Z,7.50
2017-09-21T01:49:31.679Z,7.50
2017-09-21T01:51:59.224Z,7.50
2017-09-21T01:54:26.823Z,7.60
2017-09-21T01:56:54.377Z,7.50
2017-09-21T01:59:21.972Z,7.50
2017-09-21T02:01:49.529Z,7.30
2017-09-21T02:04:17.058Z,7.40
2017-09-21T02:06:44.643Z,7.40
2017-09-21T02:09:12.175Z,7.50
2017-09-21T02:11:40.530Z,7.50
2017-09-21T02:14:08.074Z,7.50
2017-09-21T02:16:36.416Z,7.40
2017-09-21T02:19:03.958Z,7.40
2017-09-21T02:21:31.568Z,7.40
2017-09-21T02:23:59.141Z,7.40
2017-09-21T02:26:26.749Z,7.30
2017-09-21T02:28:54.320Z,7.40
2017-09-21T02:31:21.934Z,7.40
2017-09-21T02:33:49.482Z,7.30
2017-09-21T02:36:17.019Z,7.30
2017-09-21T02:38:44.596Z,7.30
2017-09-21T02:41:12.145Z,7.30
2017-09-21T02:43:39.715Z,7.40
2017-09-21T02:46:07.255Z,7.40
2017-09-21T02:48:34.811Z,7.30
2017-09-21T02:51:02.346Z,7.30
2017-09-21T02:53:29.951Z,7.40
2017-09-21T02:55:57.488Z,7.40
2017-09-21T02:58:25.104Z,7.40
2017-09-21T03:00:52.679Z,7.30
2017-09-21T03:03:20.304Z,7.30
2017-09-21T03:05:48.683Z,7.20
2017-09-21T03:08:16.234Z,7.20
2017-09-21T03:10:43.942Z,7.20
2017-09-21T03:13:11.557Z,7.30
2017-09-21T03:15:39.198Z,7.30
2017-09-21T03:18:06.808Z,7.30
2017-09-21T03:20:35.239Z,7.30
2017-09-21T03:23:02.880Z,7.30
2017-09-21T03:25:30.495Z,7.30
2017-09-21T03:27:58.059Z,7.20
2017-09-21T03:30:25.648Z,7.20
2017-09-21T03:32:53.972Z,7.20
2017-09-21T03:35:21.845Z,7.20
2017-09-21T03:37:50.175Z,7.20
2017-09-21T03:40:17.723Z,7.20
2017-09-21T03:42:45.295Z,7.20
2017-09-21T03:45:12.823Z,7.20
2017-09-21T03:47:40.392Z,7.30
2017-09-21T03:50:07.920Z,7.30
2017-09-21T03:52:35.495Z,7.10
2017-09-21T03:55:03.801Z,7.00
2017-09-21T03:57:31.391Z,7.00
2017-09-21T03:59:58.982Z,7.00
2017-09-21T04:02:26.688Z,7.00
2017-09-21T04:04:54.263Z,6.90
2017-09-21T04:07:21.905Z,7.00
2017-09-21T04:09:49.499Z,7.10
2017-09-21T04:12:17.051Z,7.10
2017-09-21T04:14:44.656Z,7.10
2017-09-21T04:17:12.208Z,7.00
2017-09-21T04:19:39.779Z,7.10
2017-09-21T04:22:07.310Z,7.00
2017-09-21T04:24:34.888Z,7.10
2017-09-21T04:27:02.433Z,7.10
2017-09-21T04:29:30.036Z,7.10
2017-09-21T04:31:57.590Z,7.20
2017-09-21T04:34:25.182Z,7.20
2017-09-21T04:36:52.740Z,7.20
2017-09-21T04:39:20.372Z,7.20
2017-09-21T04:41:47.919Z,7.20
2017-09-21T04:44:15.522Z,7.10
2017-09-21T04:46:43.063Z,7.10
2017-09-21T04:49:10.664Z,7.00
2017-09-21T04:51:38.200Z,7.10
2017-09-21T04:54:05.815Z,7.10
2017-09-21T04:56:33.714Z,7.10
2017-09-21T04:59:02.391Z,7.10
2017-09-21T05:01:31.027Z,7.10
2017-09-21T05:03:58.621Z,7.10
2017-09-21T05:06:26.204Z,7.10
2017-09-21T05:08:53.981Z,7.10
2017-09-21T05:11:21.578Z,7.00
2017-09-21T05:13:49.142Z,7.00
2017-09-21T05:16:16.720Z,7.00
2017-09-21T05:18:44.263Z,6.90
2017-09-21T05:21:11.843Z,6.80
2017-09-21T05:23:39.379Z,6.80
2017-09-21T05:26:06.960Z,6.80
2017-09-21T05:28:34.508Z,6.70
2017-09-21T05:31:02.108Z,6.80
2017-09-21T05:33:30.447Z,6.90
2017-09-21T05:35:58.880Z,6.80
2017-09-21T05:38:26.641Z,6.80
2017-09-21T05:40:55.219Z,6.90
2017-09-21T05:43:23.039Z,6.90
2017-09-21T05:45:50.671Z,6.90
2017-09-21T05:48:18.331Z,6.80
2017-09-21T05:50:45.928Z,6.90
2017-09-21T05:53:13.463Z,6.90
2017-09-21T05:55:41.052Z,6.90
2017-09-21T05:58:08.583Z,7.00
2017-09-21T06:00:36.884Z,7.10
2017-09-21T06:03:04.671Z,7.10
2017-09-21T06:05:32.421Z,7.20
2017-09-21T06:08:00.823Z,7.10
2017-09-21T06:10:29.208Z,7.20
2017-09-21T06:12:56.875Z,7.20
2017-09-21T06:15:24.498Z,7.20
2017-09-21T06:17:52.475Z,7.20
2017-09-21T06:20:20.857Z,7.00
2017-09-21T06:22:49.409Z,7.10
2017-09-21T06:25:17.031Z,7.10
2017-09-21T06:27:44.623Z,7.10
2017-09-21T06:30:12.159Z,7.10
2017-09-21T06:32:39.744Z,7.10
2017-09-21T06:35:08.127Z,7.20
2017-09-21T06:37:35.712Z,7.20
2017-09-21T06:40:03.268Z,7.30
2017-09-21T06:42:30.872Z,7.30
2017-09-21T06:44:58.508Z,7.40
2017-09-21T06:47:26.206Z,7.50
2017-09-21T06:49:53.839Z,7.60
2017-09-21T06:52:21.581Z,7.70
2017-09-21T06:54:49.188Z,7.80
2017-09-21T06:57:16.755Z,8.00
2017-09-21T06:59:47.629Z,8.10
2017-09-21T07:02:18.078Z,8.20
2017-09-21T07:04:45.777Z,8.20
2017-09-21T07:07:13.313Z,8.30
2017-09-21T07:09:40.921Z,8.40
2017-09-21T07:12:09.216Z,8.40
2017-09-21T07:14:38.706Z,8.60
2017-09-21T07:17:07.785Z,8.60
2017-09-21T07:19:35.488Z,8.80
2017-09-21T07:22:03.782Z,8.90
2017-09-21T07:24:31.319Z,8.90
2017-09-21T07:26:58.919Z,9.00
2017-09-21T07:29:27.295Z,8.90
2017-09-21T07:31:55.711Z,9.00
2017-09-21T07:34:24.651Z,9.10
2017-09-21T07:36:52.307Z,9.10
2017-09-21T07:39:19.895Z,9.10
2017-09-21T07:41:47.502Z,9.30
2017-09-21T07:44:15.068Z,9.40
2017-09-21T07:46:42.719Z,9.60
2017-09-21T07:49:10.267Z,9.80
2017-09-21T07:51:37.834Z,9.90
2017-09-21T07:54:06.898Z,10.00
2017-09-21T07:56:34.710Z,10.10
2017-09-21T07:59:02.260Z,10.30
2017-09-21T08:01:29.853Z,10.40
2017-09-21T08:03:57.416Z,10.60
2017-09-21T08:06:25.828Z,10.80
2017-09-21T08:08:53.425Z,10.80
2017-09-21T08:11:21.789Z,10.80
2017-09-21T08:13:49.392Z,10.80
2017-09-21T08:16:16.964Z,10.90
2017-09-21T08:18:44.553Z,11.00
2017-09-21T08:21:12.092Z,11.10
2017-09-21T08:23:40.604Z,11.40
2017-09-21T08:26:08.145Z,11.40
2017-09-21T08:28:36.753Z,11.50
2017-09-21T08:31:04.295Z,11.50
2017-09-21T08:33:32.123Z,11.60
2017-09-21T08:35:59.724Z,11.60
2017-09-21T08:38:27.319Z,11.80
2017-09-21T08:40:54.879Z,11.80
2017-09-21T08:43:22.677Z,12.00
2017-09-21T08:45:50.287Z,12.00
2017-09-21T08:48:17.892Z,12.10
2017-09-21T08:50:45.419Z,12.30
2017-09-21T08:53:12.991Z,12.20
2017-09-21T08:55:41.463Z,12.20
2017-09-21T08:58:09.002Z,12.30
2017-09-21T09:00:36.579Z,12.30
2017-09-21T09:03:05.536Z,12.40
2017-09-21T09:05:33.122Z,12.60
2017-09-21T09:08:01.439Z,12.80
2017-09-21T09:10:29.016Z,12.80
2017-09-21T09:12:57.335Z,12.90
2017-09-21T09:15:24.923Z,12.90
2017-09-21T09:17:53.282Z,13.10
2017-09-21T09:20:21.670Z,13.30
2017-09-21T09:22:49.949Z,13.30
2017-09-21T09:25:17.577Z,13.40
2017-09-21T09:27:45.249Z,13.40
2017-09-21T09:30:12.839Z,13.50
2017-09-21T09:32:40.408Z,13.50
2017-09-21T09:35:08.716Z,13.70
2017-09-21T09:37:36.319Z,13.70
2017-09-21T09:40:03.869Z,13.80
2017-09-21T09:42:31.437Z,13.90
2017-09-21T09:44:58.975Z,13.90
2017-09-21T09:47:26.572Z,13.90
2017-09-21T09:49:54.117Z,14.00
2017-09-21T09:52:22.129Z,14.10
2017-09-21T09:54:49.758Z,14.20
2017-09-21T09:57:17.345Z,14.30
2017-09-21T09:59:44.907Z,14.40
2017-09-21T10:02:12.484Z,14.40
2017-09-21T10:04:40.031Z,14.40
2017-09-21T10:07:08.367Z,14.60
2017-09-21T10:09:35.910Z,14.60
2017-09-21T10:12:03.497Z,14.80
2017-09-21T10:14:31.089Z,14.90
2017-09-21T10:16:58.677Z,14.90
2017-09-21T10:19:26.246Z,14.90
2017-09-21T10:21:53.844Z,14.90
2017-09-21T10:24:21.486Z,14.90
2017-09-21T10:26:49.124Z,15.00
2017-09-21T10:29:16.659Z,15.00
2017-09-21T10:31:45.022Z,15.10
2017-09-21T10:34:12.563Z,15.10
2017-09-21T10:36:40.159Z,15.10
2017-09-21T10:39:08.679Z,15.20
2017-09-21T10:41:37.019Z,15.30
2017-09-21T10:44:04.699Z,15.30
2017-09-21T10:46:32.549Z,15.40
2017-09-21T10:49:00.207Z,15.50
2017-09-21T10:51:27.775Z,15.60
2017-09-21T10:53:55.561Z,15.60
2017-09-21T10:56:23.499Z,15.80
2017-09-21T10:58:51.073Z,15.80
2017-09-21T11:01:18.633Z,16.00
2017-09-21T11:03:46.219Z,15.90
2017-09-21T11:06:14.739Z,16.10
2017-09-21T11:08:42.434Z,16.10
2017-09-21T11:11:10.049Z,16.20
2017-09-21T11:13:37.786Z,16.20
2017-09-21T11:16:05.412Z,16.30
2017-09-21T11:18:33.086Z,16.40
2017-09-21T11:21:01.227Z,16.40
2017-09-21T11:23:29.321Z,16.40
2017-09-21T11:25:57.196Z,16.30
2017-09-21T11:28:25.067Z,16.50
2017-09-21T11:30:52.953Z,16.50
2017-09-21T11:33:20.594Z,16.60
2017-09-21T11:35:48.251Z,16.60
2017-09-21T11:38:15.784Z,16.60
2017-09-21T11:40:43.417Z,16.70
2017-09-21T11:43:10.970Z,16.70
2017-09-21T11:45:38.610Z,16.80
2017-09-21T11:48:06.216Z,16.90
2017-09-21T11:50:34.609Z,17.00
2017-09-21T11:53:02.215Z,17.00
2017-09-21T11:55:29.871Z,17.10
2017-09-21T11:57:58.264Z,17.20
2017-09-21T12:00:26.624Z,17.20
2017-09-21T12:02:54.258Z,17.20
2017-09-21T12:05:21.901Z,17.20
2017-09-21T12:07:50.207Z,17.30
2017-09-21T12:10:17.788Z,17.30
2017-09-21T12:12:45.326Z,17.40
2017-09-21T12:15:12.975Z,17.40
2017-09-21T12:17:40.516Z,17.30
2017-09-21T12:20:08.056Z,17.40
2017-09-21T12:22:35.806Z,17.60
2017-09-21T12:25:03.468Z,17.60
2017-09-21T12:27:31.078Z,17.60
2017-09-21T12:29:58.670Z,17.60
2017-09-21T12:32:26.328Z,17.70
2017-09-21T12:34:53.949Z,17.80
2017-09-21T12:37:21.544Z,17.80
2017-09-21T12:39:49.099Z,18.00
2017-09-21T12:42:16.735Z,18.00
2017-09-21T12:44:44.272Z,18.10
2017-09-21T12:47:11.867Z,18.10
2017-09-21T12:49:39.407Z,18.10
2017-09-21T12:52:06.980Z,18.30
2017-09-21T12:54:34.510Z,18.30
2017-09-21T12:57:02.081Z,18.30
2017-09-21T12:59:30.375Z,18.40
2017-09-21T13:01:57.944Z,18.40
2017-09-21T13:04:25.545Z,18.40
2017-09-21T13:06:53.146Z,18.50
2017-09-21T13:09:20.688Z,18.50
2017-09-21T13:11:48.280Z,18.50
2017-09-21T13:14:16.579Z,18.80
2017-09-21T13:16:44.151Z,18.80
2017-09-21T13:19:11.684Z,19.00
2017-09-21T13:21:40.031Z,19.30
2017-09-21T13:24:07.576Z,19.30
2017-09-21T13:26:35.186Z,19.30
2017-09-21T13:29:03.494Z,19.50
2017-09-21T13:31:31.043Z,19.40
2017-09-21T13:33:58.634Z,19.60
2017-09-21T13:36:26.946Z,19.60
2017-09-21T13:38:54.594Z,19.60
2017-09-21T13:41:22.168Z,19.60
2017-09-21T13:43:50.523Z,19.60
2017-09-21T13:46:18.063Z,19.60
2017-09-21T13:48:45.640Z,19.80
2017-09-21T13:51:13.948Z,19.80
2017-09-21T13:53:41.512Z,19.80
2017-09-21T13:56:09.064Z,19.90
2017-09-21T13:58:36.641Z,19.90
2017-09-21T14:01:04.946Z,20.00
2017-09-21T14:03:32.744Z,20.00
2017-09-21T14:06:01.062Z,19.90
2017-09-21T14:08:28.732Z,19.90
2017-09-21T14:10:56.582Z,19.80
2017-09-21T14:13:25.071Z,19.70
2017-09-21T14:15:53.693Z,19.80
2017-09-21T14:18:21.297Z,19.80
2017-09-21T14:20:49.608Z,20.10
2017-09-21T14:23:17.175Z,20.10
2017-09-21T14:25:44.709Z,20.20
2017-09-21T14:28:12.352Z,20.50
2017-09-21T14:30:39.892Z,20.80
2017-09-21T14:33:07.515Z,21.30
2017-09-21T14:35:35.039Z,21.80
2017-09-21T14:38:03.371Z,22.80
2017-09-21T14:40:30.903Z,22.80
2017-09-21T14:42:58.483Z,22.90
2017-09-21T14:45:26.858Z,22.60
2017-09-21T14:47:54.445Z,22.50
2017-09-21T14:50:22.023Z,22.10
2017-09-21T14:52:49.567Z,21.60
2017-09-21T14:55:17.141Z,21.10
2017-09-21T14:57:45.473Z,20.10
2017-09-21T15:00:13.051Z,20.10
2017-09-21T15:02:40.593Z,19.80
2017-09-21T15:05:08.932Z,19.10
2017-09-21T15:07:36.470Z,19.00
2017-09-21T15:10:04.040Z,18.80
2017-09-21T15:12:32.345Z,18.20
2017-09-21T15:14:59.930Z,18.20
2017-09-21T15:17:27.501Z,18.00
2017-09-21T15:19:55.109Z,17.70
2017-09-21T15:22:22.679Z,17.60
2017-09-21T15:24:50.257Z,17.40
2017-09-21T15:27:17.861Z,17.30
2017-09-21T15:29:45.496Z,17.20
2017-09-21T15:32:13.275Z,17.10
2017-09-21T15:34:40.911Z,16.90
2017-09-21T15:37:08.516Z,16.70
2017-09-21T15:39:36.162Z,16.60
2017-09-21T15:42:03.764Z,16.50
2017-09-21T15:44:32.331Z,16.40
2017-09-21T15:47:00.746Z,16.30
2017-09-21T15:49:29.086Z,16.30
2017-09-21T15:51:56.636Z,16.10
2017-09-21T15:54:24.233Z,15.80
2017-09-21T15:56:51.811Z,15.70
2017-09-21T15:59:19.391Z,15.70
2017-09-21T16:01:46.960Z,15.60
2017-09-21T16:04:14.556Z,15.50
2017-09-21T16:06:42.192Z,15.40
2017-09-21T16:09:09.759Z,15.40
2017-09-21T16:11:37.292Z,15.30
2017-09-21T16:14:04.868Z,15.20
2017-09-21T16:16:32.408Z,15.10
2017-09-21T16:18:59.980Z,15.00
2017-09-21T16:21:27.571Z,15.00
2017-09-21T16:23:55.148Z,14.80
2017-09-21T16:26:22.749Z,14.80
2017-09-21T16:28:50.467Z,14.70
2017-09-21T16:31:18.031Z,14.80
2017-09-21T16:33:46.586Z,14.60
2017-09-21T16:36:14.179Z,14.60
2017-09-21T16:38:41.735Z,14.60
2017-09-21T16:41:09.328Z,14.60
2017-09-21T16:43:36.867Z,14.40
2017-09-21T16:46:04.470Z,14.40
2017-09-21T16:48:32.020Z,14.30
2017-09-21T16:50:59.641Z,14.40
2017-09-21T16:53:27.188Z,14.30
2017-09-21T16:55:54.825Z,14.30
2017-09-21T16:58:22.430Z,14.20
2017-09-21T17:00:50.798Z,14.10
2017-09-21T17:03:19.136Z,13.90
2017-09-21T17:05:46.730Z,13.90
2017-09-21T17:08:14.335Z,13.90
2017-09-21T17:10:41.942Z,14.00
2017-09-21T17:13:10.253Z,14.00
2017-09-21T17:15:37.823Z,14.00
2017-09-21T17:18:05.401Z,14.00
2017-09-21T17:20:32.955Z,13.80
2017-09-21T17:23:00.536Z,13.60
2017-09-21T17:25:28.088Z,13.50
2017-09-21T17:27:55.707Z,13.60
2017-09-21T17:30:23.385Z,13.50
2017-09-21T17:32:50.996Z,13.50
2017-09-21T17:35:18.637Z,13.40
2017-09-21T17:37:46.239Z,13.30
2017-09-21T17:40:13.792Z,13.30
2017-09-21T17:42:41.372Z,13.30
2017-09-21T17:45:08.923Z,13.20
2017-09-21T17:47:36.520Z,13.30
2017-09-21T17:50:04.062Z,13.20
2017-09-21T17:52:32.622Z,13.10
2017-09-21T17:55:00.257Z,12.90
2017-09-21T17:57:27.885Z,12.90
2017-09-21T17:59:55.502Z,13.00
2017-09-21T18:02:23.849Z,12.80
2017-09-21T18:04:52.195Z,12.90
2017-09-21T18:07:19.772Z,12.90
2017-09-21T18:09:48.071Z,12.70
2017-09-21T18:12:15.660Z,12.70
2017-09-21T18:14:43.205Z,12.70
2017-09-21T18:17:14.833Z,12.70
2017-09-21T18:19:42.412Z,12.60
2017-09-21T18:22:09.969Z,12.60
2017-09-21T18:24:37.569Z,12.60
2017-09-21T18:27:05.108Z,12.60
2017-09-21T18:29:32.722Z,12.60
2017-09-21T18:32:00.259Z,12.60
2017-09-21T18:34:28.252Z,12.50
2017-09-21T18:36:55.823Z,12.50
2017-09-21T18:39:23.450Z,12.50
2017-09-21T18:41:51.045Z,12.40
2017-09-21T18:44:18.694Z,12.30
2017-09-21T18:46:46.347Z,12.40
2017-09-21T18:49:13.957Z,12.30
2017-09-21T18:51:41.565Z,12.30
2017-09-21T18:54:09.188Z,12.30
2017-09-21T18:56:36.760Z,12.10
2017-09-21T18:59:04.412Z,12.20
2017-09-21T19:01:32.068Z,12.20
2017-09-21T19:03:59.738Z,12.20
2017-09-21T19:06:27.330Z,12.10
2017-09-21T19:08:54.954Z,12.10
2017-09-21T19:11:22.648Z,12.10
2017-09-21T19:13:50.326Z,12.00
2017-09-21T19:16:18.688Z,11.90
2017-09-21T19:18:46.339Z,11.90
2017-09-21T19:21:14.777Z,11.80
2017-09-21T19:23:42.496Z,11.80
2017-09-21T19:26:10.123Z,11.80
2017-09-21T19:28:37.801Z,11.70
2017-09-21T19:31:05.456Z,11.70
2017-09-21T19:33:33.102Z,11.70
2017-09-21T19:36:00.668Z,11.60
2017-09-21T19:38:28.350Z,11.60
2017-09-21T19:40:55.942Z,11.60
2017-09-21T19:43:23.597Z,11.70
2017-09-21T19:45:51.167Z,11.70
2017-09-21T19:48:18.768Z,11.60
2017-09-21T19:50:46.320Z,11.60
2017-09-21T19:53:14.016Z,11.60
2017-09-21T19:55:42.466Z,11.60
2017-09-21T19:58:10.078Z,11.60
2017-09-21T20:00:37.692Z,11.60
2017-09-21T20:03:05.267Z,11.70
2017-09-21T20:05:32.856Z,11.60
2017-09-21T20:08:00.519Z,11.70
2017-09-21T20:10:29.788Z,11.60
2017-09-21T20:12:58.137Z,11.60
2017-09-21T20:15:25.796Z,11.60
2017-09-21T20:17:53.381Z,11.50
2017-09-21T20:20:21.238Z,11.40
2017-09-21T20:22:48.907Z,11.30
2017-09-21T20:25:16.529Z,11.30
2017-09-21T20:27:44.131Z,11.40
2017-09-21T20:30:12.848Z,11.30
2017-09-21T20:32:40.413Z,11.30
2017-09-21T20:35:08.081Z,11.40
2017-09-21T20:37:35.624Z,11.40
2017-09-21T20:40:03.276Z,11.40
2017-09-21T20:42:30.833Z,11.40
2017-09-21T20:44:58.478Z,11.40
2017-09-21T20:47:26.027Z,11.40
2017-09-21T20:49:53.616Z,11.20
2017-09-21T20:52:21.158Z,11.10
2017-09-21T20:54:48.772Z,11.00
2017-09-21T20:57:16.311Z,11.00
2017-09-21T20:59:43.904Z,11.10
2017-09-21T21:02:11.448Z,11.10
2017-09-21T21:04:39.044Z,11.10
2017-09-21T21:07:06.678Z,11.10
2017-09-21T21:09:35.092Z,11.10
2017-09-21T21:12:02.800Z,11.00
2017-09-21T21:14:30.457Z,11.00
2017-09-21T21:16:58.852Z,11.00
2017-09-21T21:19:26.507Z,11.00
2017-09-21T21:21:54.128Z,11.10
2017-09-21T21:24:22.550Z,11.10
2017-09-21T21:26:50.174Z,11.10
2017-09-21T21:29:17.764Z,11.10
2017-09-21T21:31:45.317Z,11.20
2017-09-21T21:34:13.006Z,11.10
2017-09-21T21:36:40.581Z,11.10
2017-09-21T21:39:08.772Z,11.10
2017-09-21T21:41:36.391Z,11.10
2017-09-21T21:44:04.036Z,11.10
2017-09-21T21:46:31.580Z,11.00
2017-09-21T21:48:59.251Z,11.10
2017-09-21T21:51:27.208Z,11.00
2017-09-21T21:53:55.630Z,10.90
2017-09-21T21:56:23.206Z,10.90
2017-09-21T21:58:50.885Z,10.90
2017-09-21T22:01:19.248Z,10.70
2017-09-21T22:03:47.628Z,10.60
2017-09-21T22:06:15.978Z,10.60
2017-09-21T22:08:44.438Z,10.70
2017-09-21T22:11:12.055Z,10.70
2017-09-21T22:13:39.654Z,10.70
2017-09-21T22:16:07.341Z,10.60
2017-09-21T22:18:34.935Z,10.70
2017-09-21T22:21:03.345Z,10.80
2017-09-21T22:23:30.970Z,10.70
2017-09-21T22:25:58.615Z,10.70
2017-09-21T22:28:26.313Z,10.60
2017-09-21T22:30:54.027Z,10.70
2017-09-21T22:33:21.664Z,10.60
2017-09-21T22:35:49.267Z,10.50
2017-09-21T22:38:16.932Z,10.50
2017-09-21T22:40:45.353Z,10.50
2017-09-21T22:43:12.888Z,10.50
2017-09-21T22:45:40.506Z,10.50
2017-09-21T22:48:08.129Z,10.50
2017-09-21T22:50:36.466Z,10.60
2017-09-21T22:53:04.084Z,10.60
2017-09-21T22:55:31.703Z,10.50
2017-09-21T22:57:59.389Z,10.40
2017-09-21T23:00:27.025Z,10.40
2017-09-21T23:02:54.869Z,10.40
2017-09-21T23:05:22.585Z,10.40
2017-09-21T23:07:51.014Z,10.40
2017-09-21T23:10:18.615Z,10.30
2017-09-21T23:12:46.196Z,10.40
2017-09-21T23:15:13.739Z,10.40
2017-09-21T23:17:41.390Z,10.30
2017-09-21T23:20:08.999Z,10.40
2017-09-21T23:22:36.637Z,10.40
2017-09-21T23:25:05.048Z,10.40
2017-09-21T23:27:32.626Z,10.30
2017-09-21T23:30:00.356Z,10.30
2017-09-21T23:32:27.983Z,10.30
2017-09-21T23:34:55.753Z,10.20
2017-09-21T23:37:23.410Z,10.20
2017-09-21T23:39:51.078Z,10.30
2017-09-21T23:42:19.384Z,10.20
2017-09-21T23:44:47.046Z,10.10
2017-09-21T23:47:14.701Z,10.30
2017-09-21T23:49:42.349Z,10.30
2017-09-21T23:52:09.962Z,10.20
2017-09-21T23:54:37.624Z,10.20
2017-09-21T23:57:05.171Z,10.10
2017-09-21T23:59:32.756Z,10.10
